High Wych Weather

NOAA Style Reports for High Wych, Hertfordshire


Report for 2012 Sep
                   Monthly Climatological Summary for Sep 2012

Name: High Wych Weather   City: High Wych, Sawbridgeworth   State: Herts
Elevation: 72 m  Lat: N 51° 48' 26"   Lon: E 000° 07' 20"

                  Temperature (°C), Rain (mm), Wind Speed (mph)

                                      Heat  Cool        Avg
    Mean                              Deg   Deg         Wind                 Dom
Day Temp  High   Time   Low    Time   Days  Days  Rain  Speed High   Time    Dir
----------------------------------------------------------------------------------
 1  17.1  22.4   00:00  11.8   00:00   0.0   0.0   0.0  ----   7.2   00:00   ---
 2  15.9  21.6   00:00  10.1   00:00   0.0   0.0   0.0  ----   6.6   00:00   ---
 3  19.4  26.4   00:00  12.5   00:00   0.0   0.0   0.0  ----   7.8   00:00   ---
 4  18.4  26.0   00:00  10.8   00:00   0.0   0.0   0.0  ----  10.8   00:00   ---
 5  14.4  20.9   00:00   8.0   00:00   0.0   0.0   0.0  ----  14.5   00:00   ---
 6  13.8  22.8   00:00   4.9   00:00   0.0   0.0   0.0  ----   7.2   00:00   ---
 7  18.8  28.9   00:00   8.8   00:00   0.0   0.0   0.0  ----   6.6   00:00   ---
 8  19.1  29.5   00:00   8.7   00:00   0.0   0.0   0.0  ----   6.1   00:00   ---
 9  19.7  30.1   14:03   9.2   00:00   0.0   0.0   0.0  ----  13.3   00:00   ---
10  19.6  23.4   00:00  15.5   00:37   0.0   0.0   0.0  ----  13.3   00:00   ---
11  14.8  22.6   00:00   7.0   00:00   0.0   0.0   0.0  ----  10.8   00:00   ---
12  12.3  20.4   00:00   4.1   00:00   0.0   0.0   3.8  ----  10.3   00:00   ---
13  13.1  21.0   00:00   5.2   00:00   0.0   0.0   0.0  ----  10.8   00:00   ---
14  16.9  22.5   00:00  11.3   00:00   0.0   0.0   0.0  ----  14.5   00:00   ---
15  14.9  22.6   00:00   7.2   00:00   0.0   0.0   0.0   0.2   7.8   00:00   WNW
16  14.2  19.6   00:00   8.8   00:00   0.0   0.0   0.0   0.8   9.7   00:00   WNW
17  15.3  20.9   00:00   9.8   00:00   0.0   0.0   0.0  ----   9.1   00:00   ---
18  14.2  20.9   00:00   7.4   00:00   0.0   0.0   0.0  ----  10.3   00:00   ---
19  12.1  20.0   00:00   4.2   00:00   0.0   0.0   0.0  ----   9.7   00:00   ---
20  12.1  19.6   00:00   4.6   00:00   0.0   0.0   0.0  ----  10.8   00:00   ---
21  13.6  18.2   00:00   8.9   00:00   0.0   0.0   1.8  ----  12.7   00:00   ---
22   9.9  16.5   00:00   3.4   00:00   0.0   0.0   0.0  ----  10.3   00:00   ---
23   9.6  12.9   11:17   6.2   00:00   0.0   0.0  16.3  ----  15.6   00:00   ---
24  12.5  15.4   00:00   9.6   00:00   0.0   0.0   5.1  ----  16.3   00:00   ---
25  12.9  17.5   00:00   8.2   00:00   0.0   0.0   1.3  ----  17.5   00:00   ---
26  12.2  17.1   00:00   7.3   00:00   0.0   0.0   1.5  ----   9.7   00:00   ---
27  13.6  20.0   00:00   7.2   00:00   0.0   0.0   0.5  ----  10.8   00:00   ---
28  12.3  18.0   00:00   6.5   00:00   0.0   0.0   1.0  ----  11.4   00:00   ---
29  11.7  18.4   00:00   4.9   00:00   0.0   0.0   0.3  ----  10.3   00:00   ---
30  10.8  17.9   00:00   3.6   00:00   0.0   0.0   0.0  ----  12.7   00:00   ---
----------------------------------------------------------------------------------
    14.5  30.1     9     3.4    22     0.0   0.0  31.6   0.6  17.5    25     WNW

Max >=  27.0:  3
Max <=   0.0:  0
Min <=   0.0:  0
Min <=  -5.0:  0
Max Rain: 16.3 on day 23
Days of Rain: 9 (>= 0.2 mm)  3 (>= 2.0 mm)  1 (>= 15.0 mm)
Heat Base: 15.0  Cool Base: 15.0  Method: Integration
:now::gauges::console::today/yesterday::month/year::records: noaa reports::annual data::wind map::monthly records::trends::longrange forecast::rainfall radar::webcam